Archer, Nebraska
Current Conditions -  °F | °C
As of 9:53 AM on Monday 22 Dec 2014 (Local Time) from KGRI Reporting Station
Light Rain Light Rain  
Wind Chill: 33°   Ceiling: 5500
Heat Index: 41°   Visibility: 10mi
Dew Point: 36°   Wind: 15mph
Humidity: 82%   Direction: 320°NW
Pressure: 29.53"   Gusts: NA
Location:  41.17°N, 98.14°W
Report Text: KGRI 221553Z 32013KT 10SM -RA FEW033 OVC055 05/02 A2953 RMK AO2 RAB39 SLP012 P0000 T00500022
Loading
Personal Weather Stations






























Interactive Weather Map New forecast layout! Learn more

10-Day Weather Forecast

Advertisements
Track Severe Weather on mobile